Terminal Aerodrome Forecast
Issued by NWS Albany, NY

Home | Current Version | Previous Version | Text Only | Print | Product List | Glossary On
Versions: 1 2 3 4 5 6 7 8 9 10 11 12 13 14 15 16 17 18 19 20 21 22 23 24 25 26 27 28 29
000
FTUS41 KALY 220500
TAFPOU
TAF
KPOU 220533Z 2206/2306 VRB02KT P6SM VCSH SCT012 OVC022
      TEMPO 2207/2211 3SM -SHSN BR BKN012 OVC020
     FM221300 04003KT P6SM OVC025
     FM222300 VRB03KT P6SM VCSH OVC020
     FM230300 VRB02KT 4SM -RA BR OVC015=

USA.gov is the U.S. government's official web portal to all federal, state and local government web resources and services.